createdAt,value
2023-01-10T00:00:37.647Z,20.35
2023-01-10T00:02:09.756Z,20.60
2023-01-10T00:03:41.724Z,20.75
2023-01-10T00:05:13.853Z,22.17
2023-01-10T00:06:45.869Z,23.48
2023-01-10T00:08:18.241Z,23.98
2023-01-10T00:09:50.166Z,24.00
2023-01-10T00:13:12.364Z,24.38
2023-01-10T00:14:44.389Z,22.63
2023-01-10T00:16:16.491Z,24.00
2023-01-10T00:17:48.607Z,24.25
2023-01-10T00:19:20.714Z,22.65
2023-01-10T00:20:52.902Z,22.23
2023-01-10T00:22:26.216Z,21.83
2023-01-10T00:24:00.676Z,26.40
2023-01-10T00:25:34.605Z,24.52
2023-01-10T00:27:07.028Z,22.67
2023-01-10T00:28:39.710Z,23.33
2023-01-10T00:30:15.224Z,22.83
2023-01-10T00:31:50.926Z,23.70
2023-01-10T00:33:24.016Z,24.65
2023-01-10T00:34:56.003Z,23.48
2023-01-10T00:36:28.029Z,24.45
2023-01-10T00:38:05.982Z,22.88
2023-01-10T00:39:37.973Z,22.92
2023-01-10T00:41:29.939Z,21.70
2023-01-10T00:43:20.423Z,22.27
2023-01-10T00:44:52.951Z,20.40
2023-01-10T00:46:25.536Z,20.40
2023-01-10T00:47:57.699Z,21.50
2023-01-10T00:49:29.748Z,23.17
2023-01-10T00:51:02.103Z,19.58
2023-01-10T00:52:34.086Z,20.25
2023-01-10T00:54:06.208Z,20.88
2023-01-10T00:55:38.509Z,21.35
2023-01-10T00:57:10.444Z,21.00
2023-01-10T00:58:42.747Z,20.45
2023-01-10T01:00:15.043Z,20.30
2023-01-10T01:01:47.244Z,21.10
2023-01-10T01:03:20.767Z,21.33
2023-01-10T01:04:53.067Z,21.08
2023-01-10T01:06:25.281Z,21.30
2023-01-10T01:07:57.234Z,21.70
2023-01-10T01:09:30.392Z,20.58
2023-01-10T01:11:02.459Z,21.17
2023-01-10T01:12:34.557Z,21.70
2023-01-10T01:14:07.037Z,22.70
2023-01-10T01:17:11.972Z,21.85
2023-01-10T01:18:44.051Z,21.27
2023-01-10T01:20:16.195Z,22.77
2023-01-10T01:21:48.166Z,21.73
2023-01-10T01:23:20.635Z,21.20
2023-01-10T01:24:52.617Z,22.80
2023-01-10T01:26:25.864Z,22.00
2023-01-10T01:27:57.889Z,20.95
2023-01-10T01:29:42.389Z,21.67
2023-01-10T01:31:15.479Z,22.30
2023-01-10T01:32:49.963Z,20.70
2023-01-10T01:34:22.254Z,21.00
2023-01-10T01:35:54.271Z,22.05
2023-01-10T01:37:26.577Z,22.33
2023-01-10T01:39:01.462Z,21.65
2023-01-10T01:40:33.415Z,22.02
2023-01-10T01:42:06.551Z,23.88
2023-01-10T01:44:02.345Z,21.45
2023-01-10T01:45:37.871Z,21.60
2023-01-10T01:47:20.883Z,21.80
2023-01-10T01:48:52.833Z,20.58
2023-01-10T01:50:45.068Z,20.88
2023-01-10T01:52:24.461Z,22.52
2023-01-10T01:54:03.973Z,21.75
2023-01-10T01:55:37.044Z,21.58
2023-01-10T01:57:13.006Z,22.40
2023-01-10T01:58:54.578Z,22.42
2023-01-10T02:00:26.917Z,20.77
2023-01-10T02:02:02.969Z,21.17
2023-01-10T02:03:35.575Z,20.92
2023-01-10T02:05:10.062Z,22.30
2023-01-10T02:06:42.579Z,21.35
2023-01-10T02:08:14.820Z,20.60
2023-01-10T02:09:51.076Z,22.48
2023-01-10T02:11:23.185Z,21.25
2023-01-10T02:12:56.677Z,20.48
2023-01-10T02:14:29.192Z,18.88
2023-01-10T02:16:01.617Z,20.27
2023-01-10T02:17:33.675Z,20.35
2023-01-10T02:19:12.545Z,20.48
2023-01-10T02:21:25.977Z,20.42
2023-01-10T02:23:21.943Z,20.13
2023-01-10T02:25:24.450Z,20.02
2023-01-10T02:27:37.991Z,22.42
2023-01-10T02:29:47.115Z,23.80
2023-01-10T02:31:34.205Z,19.58
2023-01-10T02:33:12.125Z,23.00
2023-01-10T02:34:56.092Z,22.30
2023-01-10T02:36:52.706Z,22.35
2023-01-10T02:38:36.316Z,22.70
2023-01-10T02:40:25.171Z,20.77
2023-01-10T02:42:01.753Z,21.13
2023-01-10T02:43:38.299Z,20.92
2023-01-10T02:45:34.534Z,20.08
2023-01-10T02:47:08.651Z,21.67
2023-01-10T02:50:41.816Z,22.83
2023-01-10T02:52:36.512Z,21.08
2023-01-10T02:54:11.264Z,20.40
2023-01-10T02:56:08.236Z,20.70
2023-01-10T02:57:56.538Z,19.38
2023-01-10T02:59:43.470Z,20.63
2023-01-10T03:01:22.822Z,22.67
2023-01-10T03:03:14.085Z,23.25
2023-01-10T03:04:58.036Z,20.63
2023-01-10T03:06:45.125Z,21.27
2023-01-10T03:08:25.686Z,20.45
2023-01-10T03:10:16.266Z,21.45
2023-01-10T03:11:50.950Z,22.40
2023-01-10T03:13:45.480Z,22.30
2023-01-10T03:15:19.669Z,22.25
2023-01-10T03:16:58.684Z,21.02
2023-01-10T03:18:39.579Z,20.48
2023-01-10T03:20:12.182Z,21.65
2023-01-10T03:21:44.780Z,21.77
2023-01-10T03:25:00.342Z,22.17
2023-01-10T03:26:58.613Z,21.15
2023-01-10T03:28:56.273Z,22.10
2023-01-10T03:30:45.434Z,18.48
2023-01-10T03:32:20.467Z,21.33
2023-01-10T03:33:52.495Z,20.58
2023-01-10T03:35:34.944Z,20.02
2023-01-10T03:37:16.826Z,21.38
2023-01-10T03:38:56.995Z,20.27
2023-01-10T03:40:59.785Z,23.83
2023-01-10T03:42:56.337Z,29.50
2023-01-10T03:44:46.119Z,24.95
2023-01-10T03:46:28.439Z,27.77
2023-01-10T03:48:02.982Z,36.78
2023-01-10T03:49:37.891Z,28.38
2023-01-10T03:51:10.542Z,24.95
2023-01-10T03:52:43.081Z,31.77
2023-01-10T03:54:17.004Z,26.63
2023-01-10T03:55:49.393Z,23.70
2023-01-10T03:57:23.588Z,25.02
2023-01-10T03:58:56.045Z,22.25
2023-01-10T04:00:28.074Z,21.25
2023-01-10T04:02:00.262Z,22.10
2023-01-10T04:03:32.404Z,22.83
2023-01-10T04:05:04.801Z,21.75
2023-01-10T04:06:37.011Z,20.88
2023-01-10T04:08:09.205Z,19.75
2023-01-10T04:09:41.191Z,22.80
2023-01-10T04:11:13.390Z,21.58
2023-01-10T04:12:45.541Z,24.40
2023-01-10T04:14:17.776Z,23.95
2023-01-10T04:15:51.095Z,23.25
2023-01-10T04:17:23.233Z,21.52
2023-01-10T04:18:55.309Z,21.98
2023-01-10T04:20:27.380Z,23.42
2023-01-10T04:21:59.352Z,22.35
2023-01-10T04:23:31.885Z,25.15
2023-01-10T04:25:04.079Z,26.50
2023-01-10T04:26:36.180Z,25.40
2023-01-10T04:28:08.315Z,24.10
2023-01-10T04:29:40.305Z,22.92
2023-01-10T04:31:15.367Z,25.27
2023-01-10T04:32:48.286Z,29.55
2023-01-10T04:34:20.486Z,26.73
2023-01-10T04:35:57.807Z,25.20
2023-01-10T04:37:29.837Z,23.80
2023-01-10T04:39:01.934Z,21.67
2023-01-10T04:40:33.915Z,20.92
2023-01-10T04:42:05.959Z,21.00
2023-01-10T04:43:38.006Z,20.17
2023-01-10T04:45:12.209Z,20.90
2023-01-10T04:46:44.395Z,20.35
2023-01-10T04:48:16.577Z,22.67
2023-01-10T04:49:48.590Z,23.55
2023-01-10T04:51:20.784Z,20.33
2023-01-10T04:52:54.067Z,22.00
2023-01-10T04:54:26.102Z,21.13
2023-01-10T04:56:04.048Z,21.75
2023-01-10T04:57:41.262Z,22.73
2023-01-10T04:59:13.338Z,35.50
2023-01-10T05:00:45.417Z,29.95
2023-01-10T05:02:17.507Z,29.13
2023-01-10T05:03:54.240Z,32.33
2023-01-10T05:05:28.765Z,28.33
2023-01-10T05:07:00.782Z,26.25
2023-01-10T05:08:33.204Z,28.98
2023-01-10T05:10:06.933Z,27.70
2023-01-10T05:11:38.889Z,31.90
2023-01-10T05:13:11.170Z,30.15
2023-01-10T05:14:43.129Z,29.92
2023-01-10T05:16:18.071Z,27.45
2023-01-10T05:17:51.634Z,27.23
2023-01-10T05:21:06.556Z,27.13
2023-01-10T05:22:38.491Z,26.40
2023-01-10T05:24:10.538Z,27.67
2023-01-10T05:25:42.864Z,26.88
2023-01-10T05:28:55.371Z,25.45
2023-01-10T05:30:27.490Z,26.80
2023-01-10T05:31:59.478Z,26.02
2023-01-10T05:33:31.502Z,26.02
2023-01-10T05:35:03.527Z,25.20
2023-01-10T05:36:35.589Z,27.20
2023-01-10T05:38:07.587Z,24.95
2023-01-10T05:39:41.654Z,25.02
2023-01-10T05:41:13.696Z,23.05
2023-01-10T05:42:45.825Z,23.25
2023-01-10T05:44:17.950Z,24.27
2023-01-10T05:45:50.168Z,24.00
2023-01-10T05:47:22.757Z,25.27
2023-01-10T05:48:54.827Z,26.00
2023-01-10T05:50:26.863Z,27.70
2023-01-10T05:51:58.873Z,25.00
2023-01-10T05:53:30.991Z,26.60
2023-01-10T05:55:03.078Z,27.63
2023-01-10T05:56:35.245Z,26.30
2023-01-10T05:58:07.225Z,25.55
2023-01-10T05:59:39.286Z,23.42
2023-01-10T06:01:11.576Z,24.33
2023-01-10T06:02:43.630Z,25.88
2023-01-10T06:04:15.737Z,25.95
2023-01-10T06:05:49.035Z,26.90
2023-01-10T06:07:22.212Z,25.35
2023-01-10T06:08:56.683Z,22.83
2023-01-10T06:10:28.700Z,25.45
2023-01-10T06:12:00.847Z,27.30
2023-01-10T06:13:33.433Z,27.60
2023-01-10T06:15:06.351Z,26.63
2023-01-10T06:16:38.389Z,26.80
2023-01-10T06:18:12.030Z,27.52
2023-01-10T06:19:44.466Z,26.27
2023-01-10T06:21:16.936Z,27.30
2023-01-10T06:22:49.057Z,27.50
2023-01-10T06:24:21.025Z,30.88
2023-01-10T06:25:52.984Z,33.42
2023-01-10T06:29:00.143Z,30.05
2023-01-10T06:30:32.267Z,29.73
2023-01-10T06:32:04.293Z,27.83
2023-01-10T06:33:39.270Z,30.27
2023-01-10T06:35:11.318Z,53.83
2023-01-10T06:36:43.825Z,28.83
2023-01-10T06:38:16.785Z,28.95
2023-01-10T06:39:48.786Z,29.80
2023-01-10T06:41:20.818Z,29.17
2023-01-10T06:42:53.072Z,27.20
2023-01-10T06:44:25.091Z,26.73
2023-01-10T06:45:57.212Z,25.95
2023-01-10T06:47:29.324Z,27.10
2023-01-10T06:49:01.605Z,26.83
2023-01-10T06:50:33.561Z,28.17
2023-01-10T06:52:05.731Z,26.85
2023-01-10T06:53:37.880Z,29.58
2023-01-10T06:55:10.083Z,30.52
2023-01-10T06:56:42.085Z,31.08
2023-01-10T06:58:18.726Z,28.83
2023-01-10T06:59:50.770Z,26.95
2023-01-10T07:02:58.639Z,26.50
2023-01-10T07:04:30.645Z,25.13
2023-01-10T07:06:03.644Z,27.05
2023-01-10T07:07:35.687Z,25.38
2023-01-10T07:09:08.093Z,25.23
2023-01-10T07:10:44.258Z,25.40
2023-01-10T07:12:16.503Z,25.55
2023-01-10T07:13:48.500Z,25.90
2023-01-10T07:15:20.535Z,25.02
2023-01-10T07:16:52.542Z,25.73
2023-01-10T07:18:24.637Z,26.02
2023-01-10T07:19:56.765Z,24.65
2023-01-10T07:21:28.801Z,25.33
2023-01-10T07:23:01.225Z,23.42
2023-01-10T07:24:33.235Z,22.40
2023-01-10T07:26:10.890Z,23.45
2023-01-10T07:27:43.693Z,23.55
2023-01-10T07:29:15.628Z,23.35
2023-01-10T07:30:47.658Z,22.20
2023-01-10T07:32:19.697Z,22.58
2023-01-10T07:33:52.791Z,21.52
2023-01-10T07:35:26.149Z,20.83
2023-01-10T07:38:30.495Z,20.98
2023-01-10T07:40:02.654Z,21.40
2023-01-10T07:41:34.803Z,21.17
2023-01-10T07:43:06.777Z,21.13
2023-01-10T07:44:38.800Z,20.42
2023-01-10T07:46:12.632Z,21.05
2023-01-10T07:47:44.728Z,20.83
2023-01-10T07:49:16.774Z,24.35
2023-01-10T07:50:52.512Z,26.83
2023-01-10T07:52:24.534Z,27.70
2023-01-10T07:53:56.545Z,28.65
2023-01-10T07:55:29.291Z,27.23
2023-01-10T07:57:01.774Z,25.90
2023-01-10T07:58:33.786Z,25.40
2023-01-10T08:00:06.423Z,22.90
2023-01-10T08:01:38.567Z,21.60
2023-01-10T08:03:11.321Z,21.13
2023-01-10T08:04:43.453Z,21.90
2023-01-10T08:06:18.446Z,23.92
2023-01-10T08:07:50.685Z,25.30
2023-01-10T08:09:22.836Z,29.05
2023-01-10T08:10:55.217Z,25.73
2023-01-10T08:12:27.323Z,25.77
2023-01-10T08:13:59.358Z,26.52
2023-01-10T08:15:31.665Z,27.42
2023-01-10T08:17:03.677Z,26.35
2023-01-10T08:18:35.766Z,26.40
2023-01-10T08:20:08.505Z,23.13
2023-01-10T08:21:40.557Z,23.38
2023-01-10T08:23:12.634Z,22.65
2023-01-10T08:24:44.647Z,22.00
2023-01-10T08:26:16.754Z,24.67
2023-01-10T08:27:48.859Z,24.23
2023-01-10T08:29:20.881Z,23.77
2023-01-10T08:30:55.977Z,21.27
2023-01-10T08:32:28.100Z,22.58
2023-01-10T08:34:00.297Z,21.33
2023-01-10T08:35:37.459Z,20.25
2023-01-10T08:37:13.647Z,20.10
2023-01-10T08:38:46.319Z,18.25
2023-01-10T08:40:18.662Z,24.30
2023-01-10T08:41:50.793Z,18.52
2023-01-10T08:43:22.896Z,22.92
2023-01-10T08:44:54.956Z,20.05
2023-01-10T08:46:27.359Z,23.63
2023-01-10T08:47:59.684Z,22.67
2023-01-10T08:49:31.721Z,24.33
2023-01-10T08:51:09.078Z,22.10
2023-01-10T08:52:41.228Z,21.17
2023-01-10T08:54:13.335Z,21.23
2023-01-10T08:55:45.360Z,19.80
2023-01-10T08:57:17.382Z,20.30
2023-01-10T08:58:49.434Z,20.00
2023-01-10T09:00:22.091Z,19.83
2023-01-10T09:01:54.251Z,19.30
2023-01-10T09:03:26.334Z,18.75
2023-01-10T09:04:58.518Z,18.17
2023-01-10T09:06:30.514Z,20.63
2023-01-10T09:08:03.732Z,18.63
2023-01-10T09:09:37.189Z,18.25
2023-01-10T09:11:09.173Z,19.20
2023-01-10T09:12:56.438Z,17.67
2023-01-10T09:14:28.530Z,17.10
2023-01-10T09:16:00.953Z,15.32
2023-01-10T09:17:33.065Z,15.38
2023-01-10T09:19:05.068Z,15.40
2023-01-10T09:20:38.828Z,17.77
2023-01-10T09:22:10.973Z,17.55
2023-01-10T09:23:43.994Z,16.83
2023-01-10T09:25:16.115Z,17.65
2023-01-10T09:26:48.170Z,18.70
2023-01-10T09:28:21.217Z,16.52
2023-01-10T09:29:53.279Z,17.42
2023-01-10T09:31:25.402Z,18.50
2023-01-10T09:32:58.542Z,20.05
2023-01-10T09:34:30.612Z,21.70
2023-01-10T09:36:02.884Z,20.58
2023-01-10T09:37:35.321Z,19.65
2023-01-10T09:39:07.315Z,20.90
2023-01-10T09:41:00.602Z,17.67
2023-01-10T09:42:51.340Z,17.75
2023-01-10T09:44:43.598Z,16.35
2023-01-10T09:46:28.673Z,15.70
2023-01-10T09:48:05.233Z,16.95
2023-01-10T09:50:05.329Z,16.50
2023-01-10T09:51:41.351Z,15.82
2023-01-10T09:53:17.086Z,13.60
2023-01-10T09:54:50.968Z,12.07
2023-01-10T09:56:23.456Z,10.57
2023-01-10T09:57:57.160Z,9.88
2023-01-10T09:59:40.913Z,10.40
2023-01-10T10:01:26.196Z,9.95
2023-01-10T10:02:58.348Z,15.60
2023-01-10T10:04:36.437Z,10.75
2023-01-10T10:06:12.933Z,10.52
2023-01-10T10:07:45.482Z,9.98
2023-01-10T10:09:21.934Z,9.45
2023-01-10T10:11:01.532Z,11.80
2023-01-10T10:12:49.397Z,9.45
2023-01-10T10:14:32.306Z,8.98
2023-01-10T10:16:41.602Z,8.75
2023-01-10T10:18:31.995Z,7.78
2023-01-10T10:20:04.535Z,7.43
2023-01-10T10:22:19.834Z,7.57
2023-01-10T10:24:09.784Z,8.38
2023-01-10T10:26:05.476Z,7.82
2023-01-10T10:27:55.337Z,8.13
2023-01-10T10:29:49.439Z,7.97
2023-01-10T10:31:43.746Z,8.05
2023-01-10T10:33:48.877Z,7.78
2023-01-10T10:35:27.363Z,7.85
2023-01-10T10:37:06.593Z,9.77
2023-01-10T10:38:43.935Z,7.72
2023-01-10T10:40:26.247Z,7.25
2023-01-10T10:41:58.548Z,7.53
2023-01-10T10:43:33.895Z,8.95
2023-01-10T10:45:20.866Z,9.77
2023-01-10T10:46:53.109Z,11.57
2023-01-10T10:48:31.758Z,10.15
2023-01-10T10:50:15.807Z,10.70
2023-01-10T10:51:52.111Z,10.82
2023-01-10T10:53:24.150Z,12.18
2023-01-10T10:54:56.271Z,11.77
2023-01-10T10:56:28.444Z,10.20
2023-01-10T10:58:01.405Z,10.63
2023-01-10T10:59:33.764Z,12.77
2023-01-10T11:01:06.101Z,10.73
2023-01-10T11:02:46.466Z,9.25
2023-01-10T11:04:22.939Z,8.93
2023-01-10T11:05:55.603Z,9.98
2023-01-10T11:07:30.530Z,9.57
2023-01-10T11:09:05.337Z,13.05
2023-01-10T11:10:38.788Z,11.95
2023-01-10T11:12:17.923Z,11.57
2023-01-10T11:13:55.492Z,10.30
2023-01-10T11:15:45.526Z,10.88
2023-01-10T11:17:30.782Z,11.23
2023-01-10T11:19:24.055Z,8.93
2023-01-10T11:21:02.783Z,8.63
2023-01-10T11:22:46.565Z,9.00
2023-01-10T11:24:29.413Z,7.72
2023-01-10T11:26:01.633Z,11.43
2023-01-10T11:27:52.187Z,10.35
2023-01-10T11:29:39.967Z,9.98
2023-01-10T11:31:11.953Z,9.80
2023-01-10T11:33:19.011Z,11.27
2023-01-10T11:34:54.393Z,6.95
2023-01-10T11:36:26.388Z,8.10
2023-01-10T11:38:15.098Z,8.23
2023-01-10T11:39:47.044Z,8.05
2023-01-10T11:41:18.999Z,8.85
2023-01-10T11:42:52.576Z,9.07
2023-01-10T11:46:03.116Z,8.85
2023-01-10T11:47:41.697Z,8.55
2023-01-10T11:49:28.362Z,9.13
2023-01-10T11:51:00.452Z,8.95
2023-01-10T11:52:32.522Z,10.65
2023-01-10T11:54:07.303Z,9.13
2023-01-10T11:55:39.440Z,5.35
2023-01-10T11:57:23.874Z,7.78
2023-01-10T11:58:56.265Z,8.30
2023-01-10T12:00:38.825Z,9.98
2023-01-10T12:02:23.928Z,9.73
2023-01-10T12:03:56.557Z,9.32
2023-01-10T12:05:29.099Z,9.30
2023-01-10T12:07:09.279Z,7.18
2023-01-10T12:08:45.263Z,6.45
2023-01-10T12:10:21.912Z,6.78
2023-01-10T12:12:02.854Z,7.55
2023-01-10T12:13:47.358Z,6.35
2023-01-10T12:15:22.239Z,6.07
2023-01-10T12:17:02.005Z,7.95
2023-01-10T12:18:34.159Z,6.20
2023-01-10T12:20:07.568Z,7.40
2023-01-10T12:21:43.312Z,6.70
2023-01-10T12:23:21.433Z,7.20
2023-01-10T12:24:54.794Z,7.20
2023-01-10T12:26:30.821Z,9.10
2023-01-10T12:28:03.101Z,10.48
2023-01-10T12:29:37.805Z,7.25
2023-01-10T12:31:16.053Z,6.88
2023-01-10T12:32:56.400Z,8.07
2023-01-10T12:34:40.838Z,16.75
2023-01-10T12:36:31.699Z,13.15
2023-01-10T12:38:45.103Z,8.70
2023-01-10T12:40:29.798Z,11.65
2023-01-10T12:42:26.264Z,6.88
2023-01-10T12:44:15.152Z,7.65
2023-01-10T12:46:29.763Z,5.60
2023-01-10T12:50:04.690Z,3.33
2023-01-10T12:51:37.375Z,4.40
2023-01-10T12:53:09.366Z,4.60
2023-01-10T12:54:41.386Z,5.05
2023-01-10T12:56:15.921Z,4.30
2023-01-10T12:57:52.184Z,5.35
2023-01-10T12:59:38.123Z,6.18
2023-01-10T13:01:41.002Z,6.07
2023-01-10T13:03:16.074Z,5.18
2023-01-10T13:04:53.852Z,7.90
2023-01-10T13:06:31.873Z,8.63
2023-01-10T13:08:12.568Z,9.55
2023-01-10T13:09:45.026Z,6.40
2023-01-10T13:11:19.057Z,4.55
2023-01-10T13:12:59.576Z,4.97
2023-01-10T13:14:37.131Z,5.80
2023-01-10T13:16:31.337Z,5.57
2023-01-10T13:18:18.476Z,3.88
2023-01-10T13:20:14.924Z,3.90
2023-01-10T13:21:47.669Z,3.60
2023-01-10T13:23:30.618Z,3.88
2023-01-10T13:25:03.749Z,4.00
2023-01-10T13:26:52.302Z,4.35
2023-01-10T13:28:27.311Z,4.28
2023-01-10T13:29:59.538Z,3.67
2023-01-10T13:33:23.800Z,2.85
2023-01-10T13:34:56.460Z,2.92
2023-01-10T13:36:31.932Z,2.87
2023-01-10T13:38:04.076Z,2.60
2023-01-10T13:39:41.678Z,12.65
2023-01-10T13:41:33.679Z,6.00
2023-01-10T13:43:36.980Z,3.30
2023-01-10T13:45:12.223Z,3.67
2023-01-10T13:46:47.692Z,3.55
2023-01-10T13:48:27.960Z,3.80
2023-01-10T13:50:00.076Z,3.90
2023-01-10T13:51:32.452Z,4.03
2023-01-10T13:53:33.249Z,3.80
2023-01-10T13:55:24.448Z,3.10
2023-01-10T13:56:56.488Z,3.63
2023-01-10T13:58:58.929Z,3.28
2023-01-10T14:00:52.308Z,2.97
2023-01-10T14:02:29.267Z,3.03
2023-01-10T14:04:01.371Z,2.97
2023-01-10T14:05:33.379Z,3.40
2023-01-10T14:07:13.763Z,3.00
2023-01-10T14:08:54.198Z,3.33
2023-01-10T14:10:31.150Z,2.97
2023-01-10T14:12:07.723Z,3.13
2023-01-10T14:13:47.401Z,3.10
2023-01-10T14:15:32.685Z,3.15
2023-01-10T14:17:29.013Z,3.20
2023-01-10T14:19:02.945Z,3.35
2023-01-10T14:20:36.601Z,2.90
2023-01-10T14:23:52.858Z,2.83
2023-01-10T14:25:29.574Z,3.13
2023-01-10T14:27:02.356Z,3.42
2023-01-10T14:28:34.953Z,3.17
2023-01-10T14:30:07.693Z,3.35
2023-01-10T14:31:44.267Z,3.53
2023-01-10T14:33:21.077Z,4.15
2023-01-10T14:34:53.385Z,5.10
2023-01-10T14:36:29.108Z,5.10
2023-01-10T14:38:05.442Z,4.03
2023-01-10T14:39:38.136Z,4.68
2023-01-10T14:41:18.185Z,3.90
2023-01-10T14:42:51.201Z,4.30
2023-01-10T14:44:46.229Z,4.63
2023-01-10T14:46:23.183Z,5.00
2023-01-10T14:47:55.327Z,7.22
2023-01-10T14:49:29.543Z,10.38
2023-01-10T14:51:30.748Z,10.15
2023-01-10T14:53:02.765Z,6.53
2023-01-10T14:54:34.826Z,6.20
2023-01-10T14:56:38.495Z,4.72
2023-01-10T14:58:18.080Z,5.30
2023-01-10T14:59:51.211Z,5.32
2023-01-10T15:01:26.336Z,4.93
2023-01-10T15:03:03.616Z,4.75
2023-01-10T15:04:36.896Z,4.05
2023-01-10T15:06:08.961Z,4.85
2023-01-10T15:07:41.123Z,4.45
2023-01-10T15:09:15.225Z,25.13
2023-01-10T15:10:48.477Z,18.50
2023-01-10T15:12:21.847Z,12.15
2023-01-10T15:14:07.760Z,30.67
2023-01-10T15:15:41.011Z,28.08
2023-01-10T15:17:22.965Z,18.45
2023-01-10T15:18:56.916Z,9.52
2023-01-10T15:20:29.317Z,4.82
2023-01-10T15:22:01.460Z,4.90
2023-01-10T15:23:42.028Z,4.82
2023-01-10T15:25:32.532Z,4.72
2023-01-10T15:27:09.005Z,4.90
2023-01-10T15:28:41.300Z,5.10
2023-01-10T15:30:19.957Z,5.53
2023-01-10T15:31:55.751Z,5.18
2023-01-10T15:33:33.308Z,5.00
2023-01-10T15:35:07.157Z,5.22
2023-01-10T15:36:43.834Z,4.90
2023-01-10T15:38:20.607Z,6.05
2023-01-10T15:39:54.606Z,6.82
2023-01-10T15:41:27.120Z,7.70
2023-01-10T15:43:18.291Z,7.65
2023-01-10T15:44:54.746Z,9.30
2023-01-10T15:46:27.521Z,10.23
2023-01-10T15:48:05.598Z,8.13
2023-01-10T15:49:37.800Z,3.88
2023-01-10T15:51:21.227Z,4.05
2023-01-10T15:53:02.291Z,5.13
2023-01-10T15:54:34.408Z,5.13
2023-01-10T15:56:12.651Z,5.60
2023-01-10T15:57:44.671Z,6.93
2023-01-10T15:59:24.443Z,4.70
2023-01-10T16:02:33.341Z,4.63
2023-01-10T16:04:06.089Z,4.65
2023-01-10T16:05:38.084Z,4.27
2023-01-10T16:07:15.113Z,5.00
2023-01-10T16:08:50.264Z,5.70
2023-01-10T16:10:26.888Z,4.90
2023-01-10T16:12:17.343Z,4.85
2023-01-10T16:13:49.341Z,4.88
2023-01-10T16:15:24.117Z,4.03
2023-01-10T16:16:56.234Z,3.75
2023-01-10T16:18:28.411Z,3.80
2023-01-10T16:20:00.383Z,3.95
2023-01-10T16:21:36.866Z,3.60
2023-01-10T16:23:15.838Z,4.18
2023-01-10T16:24:49.687Z,4.38
2023-01-10T16:26:21.765Z,4.88
2023-01-10T16:27:56.610Z,4.70
2023-01-10T16:29:28.848Z,5.22
2023-01-10T16:31:06.577Z,5.78
2023-01-10T16:32:38.919Z,5.57
2023-01-10T16:34:11.043Z,6.53
2023-01-10T16:35:46.515Z,9.82
2023-01-10T16:37:18.628Z,9.50
2023-01-10T16:38:50.663Z,7.45
2023-01-10T16:40:26.049Z,8.13
2023-01-10T16:42:16.455Z,6.07
2023-01-10T16:43:49.787Z,5.75
2023-01-10T16:45:21.948Z,6.03
2023-01-10T16:46:54.578Z,5.75
2023-01-10T16:48:29.468Z,5.20
2023-01-10T16:50:01.518Z,5.47
2023-01-10T16:51:34.541Z,4.63
2023-01-10T16:53:07.605Z,5.10
2023-01-10T16:54:39.694Z,4.97
2023-01-10T16:56:14.643Z,5.18
2023-01-10T16:57:48.342Z,5.03
2023-01-10T16:59:20.871Z,4.53
2023-01-10T17:00:53.459Z,4.03
2023-01-10T17:02:25.613Z,4.18
2023-01-10T17:03:58.025Z,4.45
2023-01-10T17:05:30.252Z,3.92
2023-01-10T17:07:02.518Z,4.03
2023-01-10T17:08:34.620Z,3.97
2023-01-10T17:10:07.103Z,4.28
2023-01-10T17:11:42.273Z,4.07
2023-01-10T17:13:23.156Z,3.83
2023-01-10T17:14:55.328Z,4.18
2023-01-10T17:16:27.945Z,3.70
2023-01-10T17:18:00.118Z,4.33
2023-01-10T17:19:32.558Z,3.92
2023-01-10T17:21:04.848Z,4.25
2023-01-10T17:22:36.965Z,4.00
2023-01-10T17:24:10.977Z,6.82
2023-01-10T17:25:43.291Z,6.25
2023-01-10T17:27:15.292Z,7.63
2023-01-10T17:28:49.955Z,8.20
2023-01-10T17:30:22.148Z,13.68
2023-01-10T17:31:54.380Z,11.48
2023-01-10T17:33:27.563Z,13.60
2023-01-10T17:34:59.574Z,14.48
2023-01-10T17:36:39.059Z,7.97
2023-01-10T17:38:16.549Z,9.07
2023-01-10T17:39:48.532Z,9.07
2023-01-10T17:41:20.743Z,8.63
2023-01-10T17:42:52.849Z,8.63
2023-01-10T17:44:25.160Z,8.27
2023-01-10T17:45:59.204Z,6.07
2023-01-10T17:47:31.428Z,5.28
2023-01-10T17:49:03.785Z,5.40
2023-01-10T17:50:36.888Z,5.13
2023-01-10T17:52:09.406Z,7.15
2023-01-10T17:53:41.814Z,8.18
2023-01-10T17:55:16.472Z,8.65
2023-01-10T17:56:48.618Z,12.35
2023-01-10T17:58:21.726Z,10.68
2023-01-10T17:59:53.818Z,10.40
2023-01-10T18:01:26.657Z,10.70
2023-01-10T18:02:58.884Z,10.13
2023-01-10T18:04:31.055Z,9.25
2023-01-10T18:06:05.567Z,8.18
2023-01-10T18:07:37.717Z,7.85
2023-01-10T18:09:10.005Z,7.70
2023-01-10T18:10:42.114Z,6.85
2023-01-10T18:12:14.146Z,6.70
2023-01-10T18:13:46.281Z,6.90
2023-01-10T18:15:18.465Z,7.00
2023-01-10T18:16:50.756Z,7.85
2023-01-10T18:18:25.379Z,7.05
2023-01-10T18:19:57.601Z,6.05
2023-01-10T18:21:29.628Z,5.60
2023-01-10T18:23:20.417Z,3.95
2023-01-10T18:24:54.029Z,3.90
2023-01-10T18:27:58.207Z,3.33
2023-01-10T18:29:30.271Z,3.20
2023-01-10T18:31:06.725Z,3.95
2023-01-10T18:32:38.804Z,3.28
2023-01-10T18:34:10.921Z,3.35
2023-01-10T18:35:43.404Z,6.07
2023-01-10T18:37:19.560Z,4.28
2023-01-10T18:38:52.282Z,3.67
2023-01-10T18:40:24.450Z,2.65
2023-01-10T18:41:57.507Z,3.78
2023-01-10T18:43:30.232Z,5.05
2023-01-10T18:46:40.953Z,2.47
2023-01-10T18:48:16.420Z,2.00
2023-01-10T18:49:48.582Z,2.70
2023-01-10T18:51:21.988Z,3.13
2023-01-10T18:52:54.046Z,5.00
2023-01-10T18:54:28.256Z,8.23
2023-01-10T18:56:02.408Z,7.53
2023-01-10T18:57:34.436Z,5.75
2023-01-10T18:59:06.702Z,6.30
2023-01-10T19:00:38.630Z,7.90
2023-01-10T19:02:13.479Z,5.93
2023-01-10T19:03:46.183Z,6.07
2023-01-10T19:05:18.402Z,4.93
2023-01-10T19:06:50.369Z,3.70
2023-01-10T19:08:22.389Z,5.32
2023-01-10T19:09:54.425Z,4.32
2023-01-10T19:11:26.516Z,3.65
2023-01-10T19:12:58.511Z,5.35
2023-01-10T19:14:30.507Z,7.80
2023-01-10T19:16:34.207Z,4.47
2023-01-10T19:18:06.584Z,3.42
2023-01-10T19:19:38.660Z,4.30
2023-01-10T19:21:20.303Z,3.78
2023-01-10T19:22:52.368Z,2.72
2023-01-10T19:24:27.846Z,3.20
2023-01-10T19:25:59.924Z,2.53
2023-01-10T19:27:31.963Z,4.50
2023-01-10T19:29:04.513Z,4.00
2023-01-10T19:30:36.699Z,3.30
2023-01-10T19:32:08.911Z,2.40
2023-01-10T19:33:42.618Z,2.40
2023-01-10T19:35:14.675Z,2.20
2023-01-10T19:36:46.859Z,2.10
2023-01-10T19:38:18.925Z,1.45
2023-01-10T19:39:50.886Z,1.80
2023-01-10T19:41:23.717Z,1.60
2023-01-10T19:42:55.827Z,2.20
2023-01-10T19:44:27.871Z,2.63
2023-01-10T19:46:01.265Z,2.90
2023-01-10T19:47:33.443Z,2.92
2023-01-10T19:49:09.024Z,2.35
2023-01-10T19:50:41.049Z,3.05
2023-01-10T19:52:13.179Z,2.20
2023-01-10T19:53:46.859Z,1.55
2023-01-10T19:55:18.854Z,1.60
2023-01-10T19:56:50.850Z,1.60
2023-01-10T19:58:22.882Z,2.10
2023-01-10T19:59:56.895Z,2.28
2023-01-10T20:01:30.314Z,2.63
2023-01-10T20:03:03.365Z,3.08
2023-01-10T20:04:37.045Z,3.38
2023-01-10T20:06:11.316Z,6.57
2023-01-10T20:07:43.557Z,6.50
2023-01-10T20:09:15.871Z,6.97
2023-01-10T20:10:47.988Z,5.63
2023-01-10T20:12:20.115Z,3.53
2023-01-10T20:13:52.700Z,4.75
2023-01-10T20:15:24.737Z,5.50
2023-01-10T20:16:56.773Z,4.43
2023-01-10T20:18:28.805Z,5.13
2023-01-10T20:20:00.983Z,5.30
2023-01-10T20:21:33.059Z,4.10
2023-01-10T20:23:06.913Z,7.00
2023-01-10T20:24:38.975Z,7.28
2023-01-10T20:26:20.934Z,3.67
2023-01-10T20:27:53.137Z,2.90
2023-01-10T20:29:25.327Z,2.05
2023-01-10T20:30:57.434Z,1.88
2023-01-10T20:32:29.528Z,1.88
2023-01-10T20:34:02.003Z,1.80
2023-01-10T20:35:34.086Z,1.85
2023-01-10T20:37:06.216Z,1.90
2023-01-10T20:38:38.428Z,1.80
2023-01-10T20:40:12.930Z,2.05
2023-01-10T20:41:45.134Z,2.03
2023-01-10T20:43:18.136Z,2.00
2023-01-10T20:44:50.226Z,1.92
2023-01-10T20:46:24.856Z,2.20
2023-01-10T20:47:57.035Z,2.25
2023-01-10T20:49:29.211Z,2.55
2023-01-10T20:51:01.559Z,2.03
2023-01-10T20:52:33.684Z,2.00
2023-01-10T20:54:08.467Z,2.03
2023-01-10T20:55:40.699Z,2.20
2023-01-10T20:57:13.018Z,1.95
2023-01-10T20:58:45.329Z,1.80
2023-01-10T21:00:18.708Z,1.60
2023-01-10T21:01:50.761Z,1.58
2023-01-10T21:03:22.767Z,2.33
2023-01-10T21:04:54.826Z,2.05
2023-01-10T21:06:27.156Z,1.85
2023-01-10T21:07:59.307Z,1.63
2023-01-10T21:09:31.351Z,1.25
2023-01-10T21:11:04.820Z,1.50
2023-01-10T21:12:37.194Z,2.55
2023-01-10T21:14:09.294Z,3.13
2023-01-10T21:15:46.964Z,4.25
2023-01-10T21:17:19.017Z,3.88
2023-01-10T21:18:51.245Z,4.70
2023-01-10T21:20:23.368Z,5.80
2023-01-10T21:21:55.413Z,9.95